sensor_id;sensor_type;location;lat;lon;timestamp;pressure;altitude;pressure_sealevel;temperature;humidity
80118;BME280;69424;48.770;-1.564;2023-09-19T00:00:14;101448.86;;;16.39;71.70
80118;BME280;69424;48.770;-1.564;2023-09-19T00:00:59;101446.71;;;16.38;71.47
80118;BME280;69424;48.770;-1.564;2023-09-19T00:01:44;101446.52;;;16.38;71.42
80118;BME280;69424;48.770;-1.564;2023-09-19T00:02:18;101449.03;;;16.37;71.50
80118;BME280;69424;48.770;-1.564;2023-09-19T00:03:27;101446.55;;;16.37;71.65
80118;BME280;69424;48.770;-1.564;2023-09-19T00:04:02;101443.16;;;16.36;71.75
80118;BME280;69424;48.770;-1.564;2023-09-19T00:04:36;101441.92;;;16.35;71.86
80118;BME280;69424;48.770;-1.564;2023-09-19T00:05:12;101440.31;;;16.34;71.83
80118;BME280;69424;48.770;-1.564;2023-09-19T00:05:46;101436.39;;;16.32;71.76
80118;BME280;69424;48.770;-1.564;2023-09-19T00:06:20;101445.33;;;16.32;71.91
80118;BME280;69424;48.770;-1.564;2023-09-19T00:06:55;101441.56;;;16.31;71.76
80118;BME280;69424;48.770;-1.564;2023-09-19T00:07:28;101443.71;;;16.30;71.73
80118;BME280;69424;48.770;-1.564;2023-09-19T00:08:02;101445.13;;;16.29;71.92
80118;BME280;69424;48.770;-1.564;2023-09-19T00:08:37;101438.54;;;16.29;71.75
80118;BME280;69424;48.770;-1.564;2023-09-19T00:09:10;101438.19;;;16.29;71.70
80118;BME280;69424;48.770;-1.564;2023-09-19T00:09:43;101441.23;;;16.28;72.13
80118;BME280;69424;48.770;-1.564;2023-09-19T00:10:17;101438.53;;;16.29;71.97
80118;BME280;69424;48.770;-1.564;2023-09-19T00:10:50;101440.50;;;16.29;71.94
80118;BME280;69424;48.770;-1.564;2023-09-19T00:11:23;101441.21;;;16.29;72.13
80118;BME280;69424;48.770;-1.564;2023-09-19T00:11:59;101440.67;;;16.30;72.17
80118;BME280;69424;48.770;-1.564;2023-09-19T00:12:32;101439.61;;;16.30;71.92
80118;BME280;69424;48.770;-1.564;2023-09-19T00:13:05;101442.64;;;16.30;71.86
80118;BME280;69424;48.770;-1.564;2023-09-19T00:13:40;101441.03;;;16.30;72.00
80118;BME280;69424;48.770;-1.564;2023-09-19T00:14:14;101437.82;;;16.30;72.17
80118;BME280;69424;48.770;-1.564;2023-09-19T00:14:50;101443.54;;;16.31;72.21
80118;BME280;69424;48.770;-1.564;2023-09-19T00:15:27;101444.24;;;16.31;72.38
80118;BME280;69424;48.770;-1.564;2023-09-19T00:16:01;101445.13;;;16.31;72.68
80118;BME280;69424;48.770;-1.564;2023-09-19T00:16:34;101445.67;;;16.31;72.50
80118;BME280;69424;48.770;-1.564;2023-09-19T00:17:09;101440.68;;;16.31;72.50
80118;BME280;69424;48.770;-1.564;2023-09-19T00:17:42;101444.61;;;16.31;72.35
80118;BME280;69424;48.770;-1.564;2023-09-19T00:18:18;101439.42;;;16.31;72.18
80118;BME280;69424;48.770;-1.564;2023-09-19T00:18:54;101440.14;;;16.30;71.84
80118;BME280;69424;48.770;-1.564;2023-09-19T00:19:29;101441.57;;;16.28;72.15
80118;BME280;69424;48.770;-1.564;2023-09-19T00:20:03;101438.36;;;16.28;72.13
80118;BME280;69424;48.770;-1.564;2023-09-19T00:20:40;101440.69;;;16.27;72.32
80118;BME280;69424;48.770;-1.564;2023-09-19T00:21:14;101439.98;;;16.26;72.20
80118;BME280;69424;48.770;-1.564;2023-09-19T00:21:48;101433.38;;;16.26;72.57
80118;BME280;69424;48.770;-1.564;2023-09-19T00:22:22;101434.98;;;16.26;72.43
80118;BME280;69424;48.770;-1.564;2023-09-19T00:22:55;101435.52;;;16.25;72.41
80118;BME280;69424;48.770;-1.564;2023-09-19T00:23:29;101437.66;;;16.26;72.53
80118;BME280;69424;48.770;-1.564;2023-09-19T00:24:02;101434.80;;;16.26;72.78
80118;BME280;69424;48.770;-1.564;2023-09-19T00:24:38;101438.38;;;16.26;72.69
80118;BME280;69424;48.770;-1.564;2023-09-19T00:25:11;101434.81;;;16.26;72.52
80118;BME280;69424;48.770;-1.564;2023-09-19T00:25:48;101435.33;;;16.27;72.61
80118;BME280;69424;48.770;-1.564;2023-09-19T00:26:21;101438.37;;;16.27;72.58
80118;BME280;69424;48.770;-1.564;2023-09-19T00:26:55;101438.02;;;16.25;72.63
80118;BME280;69424;48.770;-1.564;2023-09-19T00:27:28;101436.05;;;16.26;72.57
80118;BME280;69424;48.770;-1.564;2023-09-19T00:28:02;101437.48;;;16.26;72.39
80118;BME280;69424;48.770;-1.564;2023-09-19T00:28:35;101437.84;;;16.26;72.39
80118;BME280;69424;48.770;-1.564;2023-09-19T00:29:08;101441.23;;;16.27;72.57
80118;BME280;69424;48.770;-1.564;2023-09-19T00:29:41;101437.84;;;16.27;72.41
80118;BME280;69424;48.770;-1.564;2023-09-19T00:30:15;101442.84;;;16.27;72.39
80118;BME280;69424;48.770;-1.564;2023-09-19T00:30:52;101441.77;;;16.27;72.42
80118;BME280;69424;48.770;-1.564;2023-09-19T00:31:28;101436.76;;;16.26;72.17
80118;BME280;69424;48.770;-1.564;2023-09-19T00:32:03;101440.34;;;16.25;71.81
80118;BME280;69424;48.770;-1.564;2023-09-19T00:32:37;101440.88;;;16.26;71.98
80118;BME280;69424;48.770;-1.564;2023-09-19T00:33:11;101439.45;;;16.24;72.04
80118;BME280;69424;48.770;-1.564;2023-09-19T00:33:49;101438.92;;;16.23;71.88
80118;BME280;69424;48.770;-1.564;2023-09-19T00:34:22;101441.77;;;16.22;72.07
80118;BME280;69424;48.770;-1.564;2023-09-19T00:34:56;101444.27;;;16.21;72.20
80118;BME280;69424;48.770;-1.564;2023-09-19T00:35:29;101438.03;;;16.21;72.38
80118;BME280;69424;48.770;-1.564;2023-09-19T00:36:02;101441.77;;;16.20;72.55
80118;BME280;69424;48.770;-1.564;2023-09-19T00:36:38;101441.77;;;16.20;72.63
80118;BME280;69424;48.770;-1.564;2023-09-19T00:37:12;101441.95;;;16.20;72.50
80118;BME280;69424;48.770;-1.564;2023-09-19T00:37:45;101442.86;;;16.20;72.37
80118;BME280;69424;48.770;-1.564;2023-09-19T00:38:20;101441.61;;;16.20;72.25
80118;BME280;69424;48.770;-1.564;2023-09-19T00:38:55;101444.80;;;16.21;72.18
80118;BME280;69424;48.770;-1.564;2023-09-19T00:39:29;101443.02;;;16.21;72.06
80118;BME280;69424;48.770;-1.564;2023-09-19T00:40:06;101447.30;;;16.21;72.26
80118;BME280;69424;48.770;-1.564;2023-09-19T00:40:45;101441.42;;;16.20;72.31
80118;BME280;69424;48.770;-1.564;2023-09-19T00:41:19;101444.63;;;16.21;72.61
80118;BME280;69424;48.770;-1.564;2023-09-19T00:41:52;101450.35;;;16.20;72.78
80118;BME280;69424;48.770;-1.564;2023-09-19T00:42:25;101450.88;;;16.21;72.57
80118;BME280;69424;48.770;-1.564;2023-09-19T00:42:59;101450.35;;;16.22;72.43
80118;BME280;69424;48.770;-1.564;2023-09-19T00:43:33;101444.80;;;16.22;72.59
80118;BME280;69424;48.770;-1.564;2023-09-19T00:44:08;101449.98;;;16.23;73.02
80118;BME280;69424;48.770;-1.564;2023-09-19T00:44:42;101447.67;;;16.23;73.03
80118;BME280;69424;48.770;-1.564;2023-09-19T00:45:15;101447.30;;;16.24;72.72
80118;BME280;69424;48.770;-1.564;2023-09-19T00:45:51;101446.94;;;16.24;72.91
80118;BME280;69424;48.770;-1.564;2023-09-19T00:46:24;101448.90;;;16.23;73.00
80118;BME280;69424;48.770;-1.564;2023-09-19T00:46:58;101446.95;;;16.23;73.06
80118;BME280;69424;48.770;-1.564;2023-09-19T00:47:32;101450.34;;;16.22;72.96
80118;BME280;69424;48.770;-1.564;2023-09-19T00:48:06;101449.09;;;16.22;72.70
80118;BME280;69424;48.770;-1.564;2023-09-19T00:48:42;101445.70;;;16.22;72.83
80118;BME280;69424;48.770;-1.564;2023-09-19T00:49:17;101447.13;;;16.20;72.98
80118;BME280;69424;48.770;-1.564;2023-09-19T00:49:50;101450.16;;;16.20;72.88
80118;BME280;69424;48.770;-1.564;2023-09-19T00:50:25;101448.56;;;16.20;73.11
80118;BME280;69424;48.770;-1.564;2023-09-19T00:51:02;101446.41;;;16.20;73.26
80118;BME280;69424;48.770;-1.564;2023-09-19T00:51:37;101450.34;;;16.21;73.21
80118;BME280;69424;48.770;-1.564;2023-09-19T00:52:11;101444.81;;;16.21;73.73
80118;BME280;69424;48.770;-1.564;2023-09-19T00:52:46;101446.58;;;16.21;73.58
80118;BME280;69424;48.770;-1.564;2023-09-19T00:53:23;101445.89;;;16.22;73.58
80118;BME280;69424;48.770;-1.564;2023-09-19T00:53:59;101443.55;;;16.22;73.63
80118;BME280;69424;48.770;-1.564;2023-09-19T00:54:33;101443.19;;;16.23;73.58
80118;BME280;69424;48.770;-1.564;2023-09-19T00:55:09;101445.34;;;16.23;73.60
80118;BME280;69424;48.770;-1.564;2023-09-19T00:55:44;101444.98;;;16.24;73.59
80118;BME280;69424;48.770;-1.564;2023-09-19T00:56:18;101443.02;;;16.24;73.45
80118;BME280;69424;48.770;-1.564;2023-09-19T00:56:52;101445.34;;;16.24;73.68
80118;BME280;69424;48.770;-1.564;2023-09-19T00:57:29;101444.80;;;16.24;73.68
80118;BME280;69424;48.770;-1.564;2023-09-19T00:58:02;101444.09;;;16.25;73.73
80118;BME280;69424;48.770;-1.564;2023-09-19T00:58:36;101448.73;;;16.25;73.83
80118;BME280;69424;48.770;-1.564;2023-09-19T00:59:11;101447.13;;;16.26;73.75
80118;BME280;69424;48.770;-1.564;2023-09-19T00:59:45;101446.41;;;16.25;73.72
80118;BME280;69424;48.770;-1.564;2023-09-19T01:00:22;101447.84;;;16.26;73.55
80118;BME280;69424;48.770;-1.564;2023-09-19T01:00:56;101446.39;;;16.26;73.56
80118;BME280;69424;48.770;-1.564;2023-09-19T01:01:30;101444.27;;;16.25;73.33
80118;BME280;69424;48.770;-1.564;2023-09-19T01:02:03;101443.73;;;16.24;73.41
80118;BME280;69424;48.770;-1.564;2023-09-19T01:02:37;101444.44;;;16.24;73.46
80118;BME280;69424;48.770;-1.564;2023-09-19T01:03:11;101443.55;;;16.23;73.42
80118;BME280;69424;48.770;-1.564;2023-09-19T01:03:46;101442.14;;;16.23;73.47
80118;BME280;69424;48.770;-1.564;2023-09-19T01:04:19;101441.59;;;16.22;73.40
80118;BME280;69424;48.770;-1.564;2023-09-19T01:04:54;101444.45;;;16.22;73.42
80118;BME280;69424;48.770;-1.564;2023-09-19T01:05:30;101445.69;;;16.22;73.24
80118;BME280;69424;48.770;-1.564;2023-09-19T01:06:08;101449.45;;;16.22;73.47
80118;BME280;69424;48.770;-1.564;2023-09-19T01:06:44;101449.98;;;16.22;73.47
80118;BME280;69424;48.770;-1.564;2023-09-19T01:07:19;101446.59;;;16.22;73.35
80118;BME280;69424;48.770;-1.564;2023-09-19T01:07:54;101446.77;;;16.22;73.56
80118;BME280;69424;48.770;-1.564;2023-09-19T01:08:28;101447.84;;;16.22;73.37
80118;BME280;69424;48.770;-1.564;2023-09-19T01:09:02;101445.34;;;16.23;73.42
80118;BME280;69424;48.770;-1.564;2023-09-19T01:09:37;101442.84;;;16.24;73.11
80118;BME280;69424;48.770;-1.564;2023-09-19T01:10:13;101442.30;;;16.24;73.34
80118;BME280;69424;48.770;-1.564;2023-09-19T01:11:37;101444.45;;;16.24;73.10
80118;BME280;69424;48.770;-1.564;2023-09-19T01:12:16;101439.98;;;16.24;73.28
80118;BME280;69424;48.770;-1.564;2023-09-19T01:14:49;101437.48;;;16.21;73.48
80118;BME280;69424;48.770;-1.564;2023-09-19T01:16:16;101443.21;;;16.17;73.46
80118;BME280;69424;48.770;-1.564;2023-09-19T01:16:59;101446.43;;;16.16;73.83
80118;BME280;69424;48.770;-1.564;2023-09-19T01:17:41;101442.69;;;16.15;74.10
80118;BME280;69424;48.770;-1.564;2023-09-19T01:20:11;101451.08;;;16.14;73.72
80118;BME280;69424;48.770;-1.564;2023-09-19T01:20:54;101448.04;;;16.14;73.60
80118;BME280;69424;48.770;-1.564;2023-09-19T01:21:44;101449.30;;;16.14;73.90
80118;BME280;69424;48.770;-1.564;2023-09-19T01:22:23;101448.75;;;16.14;74.06
80118;BME280;69424;48.770;-1.564;2023-09-19T01:23:02;101446.63;;;16.15;73.77
80118;BME280;69424;48.770;-1.564;2023-09-19T01:24:34;101448.05;;;16.15;73.62
80118;BME280;69424;48.770;-1.564;2023-09-19T01:27:06;101450.18;;;16.13;73.73
80118;BME280;69424;48.770;-1.564;2023-09-19T01:27:53;101446.44;;;16.12;73.35
80118;BME280;69424;48.770;-1.564;2023-09-19T01:28:34;101448.93;;;16.11;73.36
80118;BME280;69424;48.770;-1.564;2023-09-19T01:29:48;101448.41;;;16.08;73.82
80118;BME280;69424;48.770;-1.564;2023-09-19T01:30:24;101445.92;;;16.07;73.85
80118;BME280;69424;48.770;-1.564;2023-09-19T01:31:02;101447.54;;;16.06;74.01
80118;BME280;69424;48.770;-1.564;2023-09-19T01:31:37;101446.28;;;16.05;74.19
80118;BME280;69424;48.770;-1.564;2023-09-19T01:32:17;101445.04;;;16.05;73.95
80118;BME280;69424;48.770;-1.564;2023-09-19T01:32:55;101444.15;;;16.05;73.83
80118;BME280;69424;48.770;-1.564;2023-09-19T01:33:29;101444.67;;;16.05;74.03
80118;BME280;69424;48.770;-1.564;2023-09-19T01:34:24;101445.93;;;16.05;74.23
80118;BME280;69424;48.770;-1.564;2023-09-19T01:35:01;101443.61;;;16.06;73.70
80118;BME280;69424;48.770;-1.564;2023-09-19T01:35:39;101442.00;;;16.06;73.55
80118;BME280;69424;48.770;-1.564;2023-09-19T01:36:13;101439.50;;;16.05;73.76
80118;BME280;69424;48.770;-1.564;2023-09-19T01:36:46;101443.61;;;16.06;73.82
80118;BME280;69424;48.770;-1.564;2023-09-19T01:37:21;101442.54;;;16.07;73.66
80118;BME280;69424;48.770;-1.564;2023-09-19T01:37:58;101442.35;;;16.06;73.66
80118;BME280;69424;48.770;-1.564;2023-09-19T01:38:32;101436.29;;;16.06;73.67
80118;BME280;69424;48.770;-1.564;2023-09-19T01:39:11;101441.11;;;16.07;73.62
80118;BME280;69424;48.770;-1.564;2023-09-19T01:39:47;101438.77;;;16.07;73.43
80118;BME280;69424;48.770;-1.564;2023-09-19T01:40:22;101438.96;;;16.07;73.66
80118;BME280;69424;48.770;-1.564;2023-09-19T01:41:02;101438.61;;;16.07;73.47
80118;BME280;69424;48.770;-1.564;2023-09-19T01:41:59;101434.33;;;16.07;73.32
80118;BME280;69424;48.770;-1.564;2023-09-19T01:42:42;101438.42;;;16.06;73.38
80118;BME280;69424;48.770;-1.564;2023-09-19T01:43:21;101437.01;;;16.05;73.56
80118;BME280;69424;48.770;-1.564;2023-09-19T01:44:00;101439.33;;;16.04;73.61
80118;BME280;69424;48.770;-1.564;2023-09-19T01:45:19;101436.48;;;16.02;73.92
80118;BME280;69424;48.770;-1.564;2023-09-19T01:46:33;101437.02;;;16.00;73.85
80118;BME280;69424;48.770;-1.564;2023-09-19T01:47:19;101437.20;;;15.99;73.90
80118;BME280;69424;48.770;-1.564;2023-09-19T01:47:59;101439.34;;;15.99;74.18
80118;BME280;69424;48.770;-1.564;2023-09-19T01:48:43;101439.70;;;15.99;74.24
80118;BME280;69424;48.770;-1.564;2023-09-19T01:50:02;101438.63;;;15.99;74.27
80118;BME280;69424;48.770;-1.564;2023-09-19T01:50:44;101441.46;;;15.99;74.18
80118;BME280;69424;48.770;-1.564;2023-09-19T01:51:26;101445.74;;;15.99;74.52
80118;BME280;69424;48.770;-1.564;2023-09-19T01:52:09;101448.80;;;15.98;74.41
80118;BME280;69424;48.770;-1.564;2023-09-19T01:52:56;101445.40;;;15.98;74.46
80118;BME280;69424;48.770;-1.564;2023-09-19T01:53:35;101442.18;;;15.99;74.57
80118;BME280;69424;48.770;-1.564;2023-09-19T01:54:11;101448.26;;;15.98;74.67
80118;BME280;69424;48.770;-1.564;2023-09-19T01:54:49;101450.21;;;15.98;74.59
80118;BME280;69424;48.770;-1.564;2023-09-19T01:55:26;101446.29;;;15.99;74.50
80118;BME280;69424;48.770;-1.564;2023-09-19T01:56:01;101451.29;;;15.99;74.62
80118;BME280;69424;48.770;-1.564;2023-09-19T01:56:51;101452.00;;;15.99;74.49
80118;BME280;69424;48.770;-1.564;2023-09-19T01:57:28;101452.89;;;15.98;74.41
80118;BME280;69424;48.770;-1.564;2023-09-19T01:58:06;101447.39;;;15.97;74.43
80118;BME280;69424;48.770;-1.564;2023-09-19T01:58:48;101449.69;;;15.98;74.42
80118;BME280;69424;48.770;-1.564;2023-09-19T01:59:25;101451.30;;;15.97;74.42
80118;BME280;69424;48.770;-1.564;2023-09-19T02:00:05;101449.52;;;15.97;74.67
80118;BME280;69424;48.770;-1.564;2023-09-19T02:00:43;101453.08;;;15.96;74.62
80118;BME280;69424;48.770;-1.564;2023-09-19T02:01:20;101451.11;;;15.97;74.59
80118;BME280;69424;48.770;-1.564;2023-09-19T02:01:55;101449.52;;;15.96;74.47
80118;BME280;69424;48.770;-1.564;2023-09-19T02:02:29;101452.73;;;15.96;74.57
80118;BME280;69424;48.770;-1.564;2023-09-19T02:03:04;101450.58;;;15.95;74.65
80118;BME280;69424;48.770;-1.564;2023-09-19T02:03:38;101447.02;;;15.95;75.03
80118;BME280;69424;48.770;-1.564;2023-09-19T02:04:14;101439.34;;;15.95;75.03
80118;BME280;69424;48.770;-1.564;2023-09-19T02:04:49;101437.73;;;15.94;75.16
80118;BME280;69424;48.770;-1.564;2023-09-19T02:05:25;101436.85;;;15.94;74.85
80118;BME280;69424;48.770;-1.564;2023-09-19T02:06:00;101435.06;;;15.96;74.56
80118;BME280;69424;48.770;-1.564;2023-09-19T02:06:33;101438.81;;;15.96;74.62
80118;BME280;69424;48.770;-1.564;2023-09-19T02:07:07;101436.14;;;15.96;74.35
80118;BME280;69424;48.770;-1.564;2023-09-19T02:07:41;101436.31;;;15.97;74.19
80118;BME280;69424;48.770;-1.564;2023-09-19T02:08:17;101435.42;;;15.97;74.34
80118;BME280;69424;48.770;-1.564;2023-09-19T02:08:51;101433.46;;;15.98;74.19
80118;BME280;69424;48.770;-1.564;2023-09-19T02:09:25;101437.73;;;15.98;74.22
80118;BME280;69424;48.770;-1.564;2023-09-19T02:09:59;101435.58;;;15.99;74.20
80118;BME280;69424;48.770;-1.564;2023-09-19T02:10:33;101443.60;;;16.00;74.40
80118;BME280;69424;48.770;-1.564;2023-09-19T02:11:07;101438.61;;;16.00;74.33
80118;BME280;69424;48.770;-1.564;2023-09-19T02:11:40;101438.97;;;16.01;74.26
80118;BME280;69424;48.770;-1.564;2023-09-19T02:12:14;101438.25;;;16.01;74.43
80118;BME280;69424;48.770;-1.564;2023-09-19T02:12:50;101435.22;;;16.01;74.40
80118;BME280;69424;48.770;-1.564;2023-09-19T02:13:23;101434.35;;;16.01;74.19
80118;BME280;69424;48.770;-1.564;2023-09-19T02:14:01;101433.45;;;16.01;74.35
80118;BME280;69424;48.770;-1.564;2023-09-19T02:14:35;101430.41;;;16.01;74.41
80118;BME280;69424;48.770;-1.564;2023-09-19T02:15:09;101433.27;;;16.00;74.64
80118;BME280;69424;48.770;-1.564;2023-09-19T02:15:42;101433.09;;;16.00;75.03
80118;BME280;69424;48.770;-1.564;2023-09-19T02:16:17;101426.13;;;16.00;74.93
80118;BME280;69424;48.770;-1.564;2023-09-19T02:16:53;101426.67;;;16.00;74.61
80118;BME280;69424;48.770;-1.564;2023-09-19T02:17:27;101427.55;;;16.01;74.80
80118;BME280;69424;48.770;-1.564;2023-09-19T02:18:00;101424.70;;;16.01;74.85
80118;BME280;69424;48.770;-1.564;2023-09-19T02:18:35;101427.91;;;16.01;74.90
80118;BME280;69424;48.770;-1.564;2023-09-19T02:19:08;101428.81;;;16.02;74.77
80118;BME280;69424;48.770;-1.564;2023-09-19T02:19:41;101423.27;;;16.02;74.69
80118;BME280;69424;48.770;-1.564;2023-09-19T02:20:15;101422.57;;;16.01;74.72
80118;BME280;69424;48.770;-1.564;2023-09-19T02:20:49;101426.84;;;16.01;74.57
80118;BME280;69424;48.770;-1.564;2023-09-19T02:21:24;101420.77;;;16.01;74.44
80118;BME280;69424;48.770;-1.564;2023-09-19T02:21:57;101423.64;;;16.02;74.67
80118;BME280;69424;48.770;-1.564;2023-09-19T02:22:31;101423.27;;;16.03;74.70
80118;BME280;69424;48.770;-1.564;2023-09-19T02:23:04;101422.39;;;16.04;75.08
80118;BME280;69424;48.770;-1.564;2023-09-19T02:23:40;101422.02;;;16.05;75.00
80118;BME280;69424;48.770;-1.564;2023-09-19T02:24:15;101421.30;;;16.05;75.22
80118;BME280;69424;48.770;-1.564;2023-09-19T02:24:48;101426.11;;;16.06;75.20
80118;BME280;69424;48.770;-1.564;2023-09-19T02:25:21;101429.33;;;16.06;75.07
80118;BME280;69424;48.770;-1.564;2023-09-19T02:25:55;101427.55;;;16.07;75.04
80118;BME280;69424;48.770;-1.564;2023-09-19T02:26:30;101427.36;;;16.08;74.87
80118;BME280;69424;48.770;-1.564;2023-09-19T02:27:04;101431.47;;;16.08;74.91
80118;BME280;69424;48.770;-1.564;2023-09-19T02:27:38;101428.79;;;16.09;74.97
80118;BME280;69424;48.770;-1.564;2023-09-19T02:28:12;101425.38;;;16.10;75.03
80118;BME280;69424;48.770;-1.564;2023-09-19T02:28:46;101423.97;;;16.10;75.39
80118;BME280;69424;48.770;-1.564;2023-09-19T02:29:19;101427.16;;;16.11;75.03
80118;BME280;69424;48.770;-1.564;2023-09-19T02:29:55;101420.22;;;16.11;75.19
80118;BME280;69424;48.770;-1.564;2023-09-19T02:30:29;101422.17;;;16.11;75.24
80118;BME280;69424;48.770;-1.564;2023-09-19T02:31:03;101418.26;;;16.11;75.23
80118;BME280;69424;48.770;-1.564;2023-09-19T02:31:39;101417.89;;;16.11;75.36
80118;BME280;69424;48.770;-1.564;2023-09-19T02:32:12;101419.67;;;16.11;75.46
80118;BME280;69424;48.770;-1.564;2023-09-19T02:32:46;101413.44;;;16.11;75.55
80118;BME280;69424;48.770;-1.564;2023-09-19T02:33:19;101414.33;;;16.11;75.26
80118;BME280;69424;48.770;-1.564;2023-09-19T02:33:56;101415.04;;;16.11;75.33
80118;BME280;69424;48.770;-1.564;2023-09-19T02:34:29;101414.67;;;16.12;75.36
80118;BME280;69424;48.770;-1.564;2023-09-19T02:35:03;101419.14;;;16.11;75.18
80118;BME280;69424;48.770;-1.564;2023-09-19T02:35:37;101419.86;;;16.12;75.13
80118;BME280;69424;48.770;-1.564;2023-09-19T02:36:10;101420.92;;;16.12;75.04
80118;BME280;69424;48.770;-1.564;2023-09-19T02:36:44;101421.29;;;16.12;75.13
80118;BME280;69424;48.770;-1.564;2023-09-19T02:37:18;101418.42;;;16.12;75.05
80118;BME280;69424;48.770;-1.564;2023-09-19T02:37:52;101421.27;;;16.13;74.87
80118;BME280;69424;48.770;-1.564;2023-09-19T02:38:25;101417.71;;;16.13;75.23
80118;BME280;69424;48.770;-1.564;2023-09-19T02:38:59;101416.30;;;16.12;75.14
80118;BME280;69424;48.770;-1.564;2023-09-19T02:39:32;101418.60;;;16.12;75.13
80118;BME280;69424;48.770;-1.564;2023-09-19T02:40:06;101417.71;;;16.13;75.14
80118;BME280;69424;48.770;-1.564;2023-09-19T02:40:52;101415.03;;;16.13;75.42
80118;BME280;69424;48.770;-1.564;2023-09-19T02:41:26;101416.11;;;16.11;75.41
80118;BME280;69424;48.770;-1.564;2023-09-19T02:42:02;101417.00;;;16.11;75.47
80118;BME280;69424;48.770;-1.564;2023-09-19T02:42:38;101415.05;;;16.09;75.39
80118;BME280;69424;48.770;-1.564;2023-09-19T02:43:11;101415.59;;;16.08;75.50
80118;BME280;69424;48.770;-1.564;2023-09-19T02:43:45;101418.98;;;16.08;75.51
80118;BME280;69424;48.770;-1.564;2023-09-19T02:44:18;101416.31;;;16.07;75.38
80118;BME280;69424;48.770;-1.564;2023-09-19T02:44:52;101418.27;;;16.07;75.31
80118;BME280;69424;48.770;-1.564;2023-09-19T02:45:26;101423.44;;;16.07;75.35
80118;BME280;69424;48.770;-1.564;2023-09-19T02:45:59;101416.86;;;16.05;75.74
80118;BME280;69424;48.770;-1.564;2023-09-19T02:46:34;101416.13;;;16.06;75.53
80118;BME280;69424;48.770;-1.564;2023-09-19T02:47:09;101421.48;;;16.06;75.42
80118;BME280;69424;48.770;-1.564;2023-09-19T02:47:42;101417.37;;;16.06;75.96
80118;BME280;69424;48.770;-1.564;2023-09-19T02:48:16;101417.38;;;16.07;75.69
80118;BME280;69424;48.770;-1.564;2023-09-19T02:48:51;101420.77;;;16.07;75.74
80118;BME280;69424;48.770;-1.564;2023-09-19T02:49:25;101418.45;;;16.07;75.76
80118;BME280;69424;48.770;-1.564;2023-09-19T02:49:58;101413.09;;;16.08;75.67
80118;BME280;69424;48.770;-1.564;2023-09-19T02:50:31;101411.66;;;16.07;75.56
80118;BME280;69424;48.770;-1.564;2023-09-19T02:51:04;101414.69;;;16.09;75.55
80118;BME280;69424;48.770;-1.564;2023-09-19T02:51:38;101410.75;;;16.10;75.51
80118;BME280;69424;48.770;-1.564;2023-09-19T02:52:11;101410.93;;;16.11;75.35
80118;BME280;69424;48.770;-1.564;2023-09-19T02:52:48;101418.08;;;16.12;75.61
80118;BME280;69424;48.770;-1.564;2023-09-19T02:53:22;101416.47;;;16.12;75.60
80118;BME280;69424;48.770;-1.564;2023-09-19T02:53:59;101421.45;;;16.12;75.65
80118;BME280;69424;48.770;-1.564;2023-09-19T02:54:32;101420.75;;;16.13;75.48
80118;BME280;69424;48.770;-1.564;2023-09-19T02:55:06;101416.11;;;16.13;75.78
80118;BME280;69424;48.770;-1.564;2023-09-19T02:55:39;101416.11;;;16.13;75.70
80118;BME280;69424;48.770;-1.564;2023-09-19T02:56:13;101418.61;;;16.13;75.94
80118;BME280;69424;48.770;-1.564;2023-09-19T02:56:48;101420.92;;;16.13;75.81
80118;BME280;69424;48.770;-1.564;2023-09-19T02:57:22;101420.39;;;16.13;75.79
80118;BME280;69424;48.770;-1.564;2023-09-19T02:57:57;101423.07;;;16.14;75.65
80118;BME280;69424;48.770;-1.564;2023-09-19T02:58:31;101420.38;;;16.15;75.68
80118;BME280;69424;48.770;-1.564;2023-09-19T02:59:08;101422.70;;;16.16;75.66
80118;BME280;69424;48.770;-1.564;2023-09-19T02:59:43;101421.98;;;16.16;75.81
80118;BME280;69424;48.770;-1.564;2023-09-19T03:00:18;101424.48;;;16.17;75.59
80118;BME280;69424;48.770;-1.564;2023-09-19T03:00:54;101425.91;;;16.17;75.67
80118;BME280;69424;48.770;-1.564;2023-09-19T03:01:29;101423.23;;;16.18;75.59
80118;BME280;69424;48.770;-1.564;2023-09-19T03:02:02;101420.58;;;16.17;75.78
80118;BME280;69424;48.770;-1.564;2023-09-19T03:02:38;101422.68;;;16.18;75.77
80118;BME280;69424;48.770;-1.564;2023-09-19T03:03:13;101418.40;;;16.18;75.58
80118;BME280;69424;48.770;-1.564;2023-09-19T03:03:47;101418.77;;;16.18;75.65
80118;BME280;69424;48.770;-1.564;2023-09-19T03:04:20;101415.18;;;16.19;75.60
80118;BME280;69424;48.770;-1.564;2023-09-19T03:04:54;101420.36;;;16.20;75.65
80118;BME280;69424;48.770;-1.564;2023-09-19T03:05:29;101419.28;;;16.20;75.58
80118;BME280;69424;48.770;-1.564;2023-09-19T03:06:09;101415.73;;;16.21;75.44
80118;BME280;69424;48.770;-1.564;2023-09-19T03:06:43;101421.79;;;16.21;75.44
80118;BME280;69424;48.770;-1.564;2023-09-19T03:07:17;101417.68;;;16.21;75.57
80118;BME280;69424;48.770;-1.564;2023-09-19T03:07:51;101419.11;;;16.21;75.65
80118;BME280;69424;48.770;-1.564;2023-09-19T03:08:25;101414.48;;;16.21;75.40
80118;BME280;69424;48.770;-1.564;2023-09-19T03:08:58;101418.21;;;16.21;75.39
80118;BME280;69424;48.770;-1.564;2023-09-19T03:09:32;101416.08;;;16.21;75.36
80118;BME280;69424;48.770;-1.564;2023-09-19T03:10:06;101416.79;;;16.21;75.55
80118;BME280;69424;48.770;-1.564;2023-09-19T03:10:41;101417.33;;;16.20;75.34
80118;BME280;69424;48.770;-1.564;2023-09-19T03:11:14;101418.58;;;16.21;75.43
80118;BME280;69424;48.770;-1.564;2023-09-19T03:11:49;101420.36;;;16.20;75.41
80118;BME280;69424;48.770;-1.564;2023-09-19T03:12:22;101421.98;;;16.19;75.27
80118;BME280;69424;48.770;-1.564;2023-09-19T03:12:56;101417.88;;;16.19;75.10
80118;BME280;69424;48.770;-1.564;2023-09-19T03:13:30;101423.75;;;16.18;75.15
80118;BME280;69424;48.770;-1.564;2023-09-19T03:14:04;101421.10;;;16.18;75.05
80118;BME280;69424;48.770;-1.564;2023-09-19T03:14:38;101422.33;;;16.18;75.21